sensor_id;sensor_type;location;lat;lon;timestamp;P1;durP1;ratioP1;P2;durP2;ratioP2
43809;SDS011;29440;48.208;11.162;2023-02-28T00:01:20;2.72;;;1.52;;
43809;SDS011;29440;48.208;11.162;2023-02-28T00:03:46;3.08;;;1.58;;
43809;SDS011;29440;48.208;11.162;2023-02-28T00:06:12;7.05;;;1.38;;
43809;SDS011;29440;48.208;11.162;2023-02-28T00:08:37;2.53;;;1.10;;
43809;SDS011;29440;48.208;11.162;2023-02-28T00:11:11;3.60;;;1.52;;
43809;SDS011;29440;48.208;11.162;2023-02-28T00:13:39;3.13;;;1.70;;
43809;SDS011;29440;48.208;11.162;2023-02-28T00:16:08;4.22;;;1.08;;
43809;SDS011;29440;48.208;11.162;2023-02-28T00:18:36;3.75;;;1.27;;
43809;SDS011;29440;48.208;11.162;2023-02-28T00:21:03;3.65;;;1.40;;
43809;SDS011;29440;48.208;11.162;2023-02-28T00:23:29;3.33;;;1.30;;
43809;SDS011;29440;48.208;11.162;2023-02-28T00:25:54;2.05;;;1.30;;
43809;SDS011;29440;48.208;11.162;2023-02-28T00:28:20;4.13;;;1.75;;
43809;SDS011;29440;48.208;11.162;2023-02-28T00:30:46;4.95;;;1.83;;
43809;SDS011;29440;48.208;11.162;2023-02-28T00:33:12;3.05;;;1.40;;
43809;SDS011;29440;48.208;11.162;2023-02-28T00:35:38;4.28;;;1.55;;
43809;SDS011;29440;48.208;11.162;2023-02-28T00:38:04;5.22;;;2.03;;
43809;SDS011;29440;48.208;11.162;2023-02-28T00:40:29;2.58;;;1.38;;
43809;SDS011;29440;48.208;11.162;2023-02-28T00:42:55;2.22;;;1.30;;
43809;SDS011;29440;48.208;11.162;2023-02-28T00:45:21;4.68;;;1.80;;
43809;SDS011;29440;48.208;11.162;2023-02-28T00:47:46;2.55;;;0.95;;
43809;SDS011;29440;48.208;11.162;2023-02-28T00:50:15;3.95;;;1.23;;
43809;SDS011;29440;48.208;11.162;2023-02-28T00:52:42;2.05;;;1.15;;
43809;SDS011;29440;48.208;11.162;2023-02-28T00:55:07;2.97;;;1.55;;
43809;SDS011;29440;48.208;11.162;2023-02-28T00:57:33;5.00;;;1.35;;
43809;SDS011;29440;48.208;11.162;2023-02-28T00:59:59;3.85;;;1.52;;
43809;SDS011;29440;48.208;11.162;2023-02-28T01:02:25;2.35;;;1.08;;
43809;SDS011;29440;48.208;11.162;2023-02-28T01:04:50;4.15;;;1.50;;
43809;SDS011;29440;48.208;11.162;2023-02-28T01:07:16;3.20;;;1.38;;
43809;SDS011;29440;48.208;11.162;2023-02-28T01:09:42;4.65;;;1.80;;
43809;SDS011;29440;48.208;11.162;2023-02-28T01:12:08;4.28;;;1.67;;
43809;SDS011;29440;48.208;11.162;2023-02-28T01:14:34;3.83;;;1.52;;
43809;SDS011;29440;48.208;11.162;2023-02-28T01:17:00;1.45;;;0.88;;
43809;SDS011;29440;48.208;11.162;2023-02-28T01:19:26;3.28;;;1.60;;
43809;SDS011;29440;48.208;11.162;2023-02-28T01:21:53;4.03;;;1.77;;
43809;SDS011;29440;48.208;11.162;2023-02-28T01:24:19;3.58;;;1.30;;
43809;SDS011;29440;48.208;11.162;2023-02-28T01:26:44;3.25;;;1.75;;
43809;SDS011;29440;48.208;11.162;2023-02-28T01:29:10;3.35;;;1.70;;
43809;SDS011;29440;48.208;11.162;2023-02-28T01:31:39;5.28;;;1.60;;
43809;SDS011;29440;48.208;11.162;2023-02-28T01:34:05;3.60;;;1.38;;
43809;SDS011;29440;48.208;11.162;2023-02-28T01:36:30;4.50;;;2.13;;
43809;SDS011;29440;48.208;11.162;2023-02-28T01:38:56;7.13;;;1.48;;
43809;SDS011;29440;48.208;11.162;2023-02-28T01:41:23;5.35;;;2.42;;
43809;SDS011;29440;48.208;11.162;2023-02-28T01:46:19;6.72;;;2.40;;
43809;SDS011;29440;48.208;11.162;2023-02-28T01:48:50;3.92;;;1.98;;
43809;SDS011;29440;48.208;11.162;2023-02-28T01:54:27;4.78;;;1.77;;
43809;SDS011;29440;48.208;11.162;2023-02-28T01:57:00;5.57;;;2.15;;
43809;SDS011;29440;48.208;11.162;2023-02-28T01:59:30;4.18;;;1.75;;
43809;SDS011;29440;48.208;11.162;2023-02-28T02:02:05;2.70;;;1.77;;
43809;SDS011;29440;48.208;11.162;2023-02-28T02:04:32;3.70;;;1.67;;
43809;SDS011;29440;48.208;11.162;2023-02-28T02:07:05;3.20;;;1.35;;
43809;SDS011;29440;48.208;11.162;2023-02-28T02:09:31;7.90;;;1.38;;
43809;SDS011;29440;48.208;11.162;2023-02-28T02:11:56;2.83;;;0.90;;
43809;SDS011;29440;48.208;11.162;2023-02-28T02:14:31;3.72;;;2.03;;
43809;SDS011;29440;48.208;11.162;2023-02-28T02:17:10;3.67;;;1.77;;
43809;SDS011;29440;48.208;11.162;2023-02-28T02:22:37;3.10;;;1.65;;
43809;SDS011;29440;48.208;11.162;2023-02-28T02:33:13;2.97;;;1.55;;
43809;SDS011;29440;48.208;11.162;2023-02-28T02:36:06;4.90;;;1.77;;
43809;SDS011;29440;48.208;11.162;2023-02-28T02:38:35;3.60;;;2.10;;
43809;SDS011;29440;48.208;11.162;2023-02-28T02:41:22;2.80;;;1.15;;
43809;SDS011;29440;48.208;11.162;2023-02-28T02:44:02;4.75;;;1.73;;
43809;SDS011;29440;48.208;11.162;2023-02-28T02:46:39;6.80;;;1.95;;
43809;SDS011;29440;48.208;11.162;2023-02-28T02:49:10;4.78;;;2.00;;
43809;SDS011;29440;48.208;11.162;2023-02-28T02:51:41;5.10;;;2.28;;
43809;SDS011;29440;48.208;11.162;2023-02-28T02:54:09;5.50;;;2.50;;
43809;SDS011;29440;48.208;11.162;2023-02-28T02:56:35;3.63;;;1.42;;
43809;SDS011;29440;48.208;11.162;2023-02-28T02:59:05;3.72;;;1.70;;
43809;SDS011;29440;48.208;11.162;2023-02-28T03:01:34;4.45;;;2.60;;
43809;SDS011;29440;48.208;11.162;2023-02-28T03:04:07;4.00;;;2.20;;
43809;SDS011;29440;48.208;11.162;2023-02-28T03:06:39;5.80;;;1.90;;
43809;SDS011;29440;48.208;11.162;2023-02-28T03:09:04;8.20;;;2.35;;
43809;SDS011;29440;48.208;11.162;2023-02-28T03:11:30;4.50;;;1.92;;
43809;SDS011;29440;48.208;11.162;2023-02-28T03:16:54;3.78;;;1.73;;
43809;SDS011;29440;48.208;11.162;2023-02-28T03:19:47;4.60;;;1.90;;
43809;SDS011;29440;48.208;11.162;2023-02-28T03:27:53;3.28;;;1.55;;
43809;SDS011;29440;48.208;11.162;2023-02-28T03:30:49;4.70;;;2.53;;
43809;SDS011;29440;48.208;11.162;2023-02-28T03:33:21;3.05;;;2.05;;
43809;SDS011;29440;48.208;11.162;2023-02-28T03:35:55;3.78;;;1.65;;
43809;SDS011;29440;48.208;11.162;2023-02-28T03:38:29;3.75;;;1.73;;
43809;SDS011;29440;48.208;11.162;2023-02-28T03:41:22;6.10;;;2.60;;
43809;SDS011;29440;48.208;11.162;2023-02-28T03:43:52;4.82;;;2.08;;
43809;SDS011;29440;48.208;11.162;2023-02-28T03:46:23;6.88;;;2.72;;
43809;SDS011;29440;48.208;11.162;2023-02-28T03:48:55;5.65;;;2.53;;
43809;SDS011;29440;48.208;11.162;2023-02-28T03:51:27;5.03;;;2.60;;
43809;SDS011;29440;48.208;11.162;2023-02-28T03:53:54;4.90;;;2.20;;
43809;SDS011;29440;48.208;11.162;2023-02-28T03:56:27;5.65;;;2.72;;
43809;SDS011;29440;48.208;11.162;2023-02-28T03:59:17;3.60;;;1.70;;
43809;SDS011;29440;48.208;11.162;2023-02-28T04:01:51;5.05;;;2.38;;
43809;SDS011;29440;48.208;11.162;2023-02-28T04:04:17;6.65;;;3.17;;
43809;SDS011;29440;48.208;11.162;2023-02-28T04:06:43;6.30;;;2.47;;
43809;SDS011;29440;48.208;11.162;2023-02-28T04:09:11;8.57;;;3.17;;
43809;SDS011;29440;48.208;11.162;2023-02-28T04:11:42;3.40;;;2.40;;
43809;SDS011;29440;48.208;11.162;2023-02-28T04:14:09;5.53;;;2.88;;
43809;SDS011;29440;48.208;11.162;2023-02-28T04:16:40;6.78;;;2.97;;
43809;SDS011;29440;48.208;11.162;2023-02-28T04:19:07;9.00;;;3.08;;
43809;SDS011;29440;48.208;11.162;2023-02-28T04:21:52;9.43;;;3.15;;
43809;SDS011;29440;48.208;11.162;2023-02-28T04:24:20;6.35;;;3.05;;
43809;SDS011;29440;48.208;11.162;2023-02-28T04:26:51;7.40;;;3.05;;
43809;SDS011;29440;48.208;11.162;2023-02-28T04:29:20;8.00;;;3.17;;
43809;SDS011;29440;48.208;11.162;2023-02-28T04:31:55;5.82;;;3.17;;
43809;SDS011;29440;48.208;11.162;2023-02-28T04:34:23;8.98;;;3.50;;
43809;SDS011;29440;48.208;11.162;2023-02-28T04:36:49;10.70;;;3.38;;
43809;SDS011;29440;48.208;11.162;2023-02-28T04:39:15;8.75;;;3.35;;
43809;SDS011;29440;48.208;11.162;2023-02-28T04:41:43;6.47;;;2.72;;
43809;SDS011;29440;48.208;11.162;2023-02-28T04:44:09;8.43;;;4.03;;
43809;SDS011;29440;48.208;11.162;2023-02-28T04:46:38;6.65;;;3.05;;
43809;SDS011;29440;48.208;11.162;2023-02-28T04:49:03;8.73;;;3.40;;
43809;SDS011;29440;48.208;11.162;2023-02-28T04:51:29;10.27;;;4.70;;
43809;SDS011;29440;48.208;11.162;2023-02-28T04:53:54;9.00;;;4.05;;
43809;SDS011;29440;48.208;11.162;2023-02-28T04:56:20;7.25;;;3.17;;
43809;SDS011;29440;48.208;11.162;2023-02-28T04:58:46;5.70;;;2.80;;
43809;SDS011;29440;48.208;11.162;2023-02-28T05:01:17;8.55;;;3.92;;
43809;SDS011;29440;48.208;11.162;2023-02-28T05:03:43;8.55;;;3.75;;
43809;SDS011;29440;48.208;11.162;2023-02-28T05:06:09;9.60;;;4.38;;
43809;SDS011;29440;48.208;11.162;2023-02-28T05:08:36;7.88;;;4.18;;
43809;SDS011;29440;48.208;11.162;2023-02-28T05:11:02;8.73;;;4.22;;
43809;SDS011;29440;48.208;11.162;2023-02-28T05:13:29;6.45;;;2.40;;
43809;SDS011;29440;48.208;11.162;2023-02-28T05:15:55;8.52;;;3.95;;
43809;SDS011;29440;48.208;11.162;2023-02-28T05:18:20;5.70;;;2.97;;
43809;SDS011;29440;48.208;11.162;2023-02-28T05:20:46;8.98;;;4.50;;
43809;SDS011;29440;48.208;11.162;2023-02-28T05:23:12;9.70;;;3.95;;
43809;SDS011;29440;48.208;11.162;2023-02-28T05:25:39;7.00;;;4.05;;
43809;SDS011;29440;48.208;11.162;2023-02-28T05:28:05;8.93;;;4.57;;
43809;SDS011;29440;48.208;11.162;2023-02-28T05:30:30;8.25;;;4.22;;
43809;SDS011;29440;48.208;11.162;2023-02-28T05:32:56;9.70;;;4.60;;
43809;SDS011;29440;48.208;11.162;2023-02-28T05:35:23;10.82;;;4.45;;
43809;SDS011;29440;48.208;11.162;2023-02-28T05:37:49;9.48;;;3.55;;
43809;SDS011;29440;48.208;11.162;2023-02-28T05:40:15;10.07;;;4.68;;
43809;SDS011;29440;48.208;11.162;2023-02-28T05:42:41;7.68;;;4.00;;
43809;SDS011;29440;48.208;11.162;2023-02-28T05:45:07;10.73;;;4.55;;
43809;SDS011;29440;48.208;11.162;2023-02-28T05:47:33;12.25;;;5.55;;
43809;SDS011;29440;48.208;11.162;2023-02-28T05:50:00;11.82;;;4.80;;
43809;SDS011;29440;48.208;11.162;2023-02-28T05:52:26;13.15;;;5.60;;
43809;SDS011;29440;48.208;11.162;2023-02-28T05:54:51;12.48;;;5.40;;
43809;SDS011;29440;48.208;11.162;2023-02-28T05:57:17;8.68;;;4.10;;
43809;SDS011;29440;48.208;11.162;2023-02-28T05:59:42;11.25;;;5.30;;
43809;SDS011;29440;48.208;11.162;2023-02-28T06:02:10;11.80;;;5.50;;
43809;SDS011;29440;48.208;11.162;2023-02-28T06:04:37;19.45;;;6.85;;
43809;SDS011;29440;48.208;11.162;2023-02-28T06:07:03;6.40;;;2.17;;
43809;SDS011;29440;48.208;11.162;2023-02-28T06:09:28;10.02;;;4.75;;
43809;SDS011;29440;48.208;11.162;2023-02-28T06:11:54;5.13;;;2.63;;
43809;SDS011;29440;48.208;11.162;2023-02-28T06:14:23;12.85;;;4.75;;
43809;SDS011;29440;48.208;11.162;2023-02-28T06:16:48;17.67;;;6.80;;
43809;SDS011;29440;48.208;11.162;2023-02-28T06:19:14;9.27;;;4.07;;
43809;SDS011;29440;48.208;11.162;2023-02-28T06:21:40;7.60;;;4.25;;
43809;SDS011;29440;48.208;11.162;2023-02-28T06:24:06;11.65;;;6.05;;
43809;SDS011;29440;48.208;11.162;2023-02-28T06:26:32;10.07;;;4.43;;
43809;SDS011;29440;48.208;11.162;2023-02-28T06:28:57;12.35;;;5.20;;
43809;SDS011;29440;48.208;11.162;2023-02-28T06:31:23;9.05;;;4.65;;
43809;SDS011;29440;48.208;11.162;2023-02-28T06:33:50;12.05;;;5.68;;
43809;SDS011;29440;48.208;11.162;2023-02-28T06:36:16;12.27;;;5.28;;
43809;SDS011;29440;48.208;11.162;2023-02-28T06:38:42;11.50;;;5.10;;
43809;SDS011;29440;48.208;11.162;2023-02-28T06:41:09;13.65;;;5.82;;
43809;SDS011;29440;48.208;11.162;2023-02-28T06:43:36;13.18;;;6.35;;
43809;SDS011;29440;48.208;11.162;2023-02-28T06:46:05;13.65;;;6.57;;
43809;SDS011;29440;48.208;11.162;2023-02-28T06:48:32;8.95;;;3.28;;
43809;SDS011;29440;48.208;11.162;2023-02-28T06:51:04;12.45;;;6.50;;
43809;SDS011;29440;48.208;11.162;2023-02-28T06:53:31;11.35;;;5.15;;
43809;SDS011;29440;48.208;11.162;2023-02-28T06:55:57;12.65;;;6.10;;
43809;SDS011;29440;48.208;11.162;2023-02-28T06:58:23;14.80;;;7.32;;
43809;SDS011;29440;48.208;11.162;2023-02-28T07:00:50;13.82;;;5.57;;
43809;SDS011;29440;48.208;11.162;2023-02-28T07:03:17;12.02;;;6.60;;
43809;SDS011;29440;48.208;11.162;2023-02-28T07:05:43;13.05;;;4.03;;
43809;SDS011;29440;48.208;11.162;2023-02-28T07:08:09;11.45;;;5.53;;
43809;SDS011;29440;48.208;11.162;2023-02-28T07:10:38;11.48;;;4.75;;
43809;SDS011;29440;48.208;11.162;2023-02-28T07:13:04;13.38;;;5.75;;
43809;SDS011;29440;48.208;11.162;2023-02-28T07:15:31;12.80;;;4.97;;
43809;SDS011;29440;48.208;11.162;2023-02-28T07:17:56;13.38;;;6.93;;
43809;SDS011;29440;48.208;11.162;2023-02-28T07:20:22;11.52;;;5.95;;
43809;SDS011;29440;48.208;11.162;2023-02-28T07:22:48;13.68;;;6.60;;
43809;SDS011;29440;48.208;11.162;2023-02-28T07:25:20;15.05;;;7.43;;
43809;SDS011;29440;48.208;11.162;2023-02-28T07:27:47;12.13;;;6.53;;
43809;SDS011;29440;48.208;11.162;2023-02-28T07:30:12;18.00;;;7.65;;
43809;SDS011;29440;48.208;11.162;2023-02-28T07:32:38;7.40;;;3.75;;
43809;SDS011;29440;48.208;11.162;2023-02-28T07:35:04;19.00;;;7.32;;
43809;SDS011;29440;48.208;11.162;2023-02-28T07:37:30;14.48;;;6.47;;
43809;SDS011;29440;48.208;11.162;2023-02-28T07:40:02;10.05;;;4.75;;
43809;SDS011;29440;48.208;11.162;2023-02-28T07:42:31;10.43;;;6.13;;
43809;SDS011;29440;48.208;11.162;2023-02-28T07:44:57;13.82;;;5.88;;
43809;SDS011;29440;48.208;11.162;2023-02-28T07:47:24;12.88;;;6.75;;
43809;SDS011;29440;48.208;11.162;2023-02-28T07:49:49;18.38;;;7.10;;
43809;SDS011;29440;48.208;11.162;2023-02-28T07:52:15;17.33;;;8.15;;
43809;SDS011;29440;48.208;11.162;2023-02-28T07:54:40;12.45;;;6.35;;
43809;SDS011;29440;48.208;11.162;2023-02-28T07:57:06;10.13;;;5.45;;
43809;SDS011;29440;48.208;11.162;2023-02-28T07:59:32;13.88;;;5.15;;
43809;SDS011;29440;48.208;11.162;2023-02-28T08:01:58;13.88;;;7.43;;
43809;SDS011;29440;48.208;11.162;2023-02-28T08:04:24;11.60;;;5.50;;
43809;SDS011;29440;48.208;11.162;2023-02-28T08:06:49;16.25;;;7.47;;
43809;SDS011;29440;48.208;11.162;2023-02-28T08:09:17;16.63;;;8.10;;
43809;SDS011;29440;48.208;11.162;2023-02-28T08:11:43;12.15;;;6.13;;
43809;SDS011;29440;48.208;11.162;2023-02-28T08:14:09;16.15;;;7.60;;
43809;SDS011;29440;48.208;11.162;2023-02-28T08:16:34;18.23;;;9.52;;
43809;SDS011;29440;48.208;11.162;2023-02-28T08:19:00;14.00;;;5.85;;
43809;SDS011;29440;48.208;11.162;2023-02-28T08:21:26;11.40;;;6.88;;
43809;SDS011;29440;48.208;11.162;2023-02-28T08:23:51;14.27;;;8.70;;
43809;SDS011;29440;48.208;11.162;2023-02-28T08:26:17;17.20;;;8.40;;
43809;SDS011;29440;48.208;11.162;2023-02-28T08:28:44;15.60;;;8.18;;
43809;SDS011;29440;48.208;11.162;2023-02-28T08:31:10;17.40;;;8.27;;
43809;SDS011;29440;48.208;11.162;2023-02-28T08:33:38;13.13;;;5.93;;
43809;SDS011;29440;48.208;11.162;2023-02-28T08:36:04;17.92;;;8.23;;
43809;SDS011;29440;48.208;11.162;2023-02-28T08:38:31;16.33;;;7.13;;
43809;SDS011;29440;48.208;11.162;2023-02-28T08:40:57;18.17;;;8.50;;
43809;SDS011;29440;48.208;11.162;2023-02-28T08:43:28;18.02;;;8.73;;
43809;SDS011;29440;48.208;11.162;2023-02-28T08:45:56;20.27;;;8.80;;
43809;SDS011;29440;48.208;11.162;2023-02-28T08:48:22;19.13;;;9.30;;
43809;SDS011;29440;48.208;11.162;2023-02-28T08:50:56;13.88;;;7.57;;
43809;SDS011;29440;48.208;11.162;2023-02-28T08:53:22;19.50;;;9.15;;
43809;SDS011;29440;48.208;11.162;2023-02-28T08:55:55;16.02;;;6.55;;
43809;SDS011;29440;48.208;11.162;2023-02-28T08:58:28;15.25;;;8.20;;
43809;SDS011;29440;48.208;11.162;2023-02-28T09:00:54;13.45;;;7.00;;
43809;SDS011;29440;48.208;11.162;2023-02-28T09:03:20;11.43;;;6.28;;
43809;SDS011;29440;48.208;11.162;2023-02-28T09:05:53;8.80;;;5.43;;
43809;SDS011;29440;48.208;11.162;2023-02-28T09:08:20;10.20;;;5.90;;
43809;SDS011;29440;48.208;11.162;2023-02-28T09:10:46;12.95;;;7.72;;
43809;SDS011;29440;48.208;11.162;2023-02-28T09:13:12;12.65;;;5.97;;
43809;SDS011;29440;48.208;11.162;2023-02-28T09:15:38;9.30;;;3.85;;
43809;SDS011;29440;48.208;11.162;2023-02-28T09:18:04;8.88;;;4.20;;
43809;SDS011;29440;48.208;11.162;2023-02-28T09:20:29;10.43;;;4.28;;
43809;SDS011;29440;48.208;11.162;2023-02-28T09:22:55;18.15;;;7.32;;
43809;SDS011;29440;48.208;11.162;2023-02-28T09:25:20;10.18;;;5.80;;
43809;SDS011;29440;48.208;11.162;2023-02-28T09:27:46;14.88;;;7.00;;
43809;SDS011;29440;48.208;11.162;2023-02-28T09:30:12;10.55;;;5.90;;
43809;SDS011;29440;48.208;11.162;2023-02-28T09:32:38;14.27;;;6.53;;
43809;SDS011;29440;48.208;11.162;2023-02-28T09:35:03;19.08;;;8.00;;
43809;SDS011;29440;48.208;11.162;2023-02-28T09:37:30;15.75;;;6.93;;
43809;SDS011;29440;48.208;11.162;2023-02-28T09:39:56;14.35;;;7.30;;
43809;SDS011;29440;48.208;11.162;2023-02-28T09:42:23;20.50;;;7.53;;
43809;SDS011;29440;48.208;11.162;2023-02-28T09:44:54;20.00;;;7.82;;
43809;SDS011;29440;48.208;11.162;2023-02-28T09:47:34;14.60;;;7.63;;
43809;SDS011;29440;48.208;11.162;2023-02-28T09:50:17;10.77;;;4.85;;
43809;SDS011;29440;48.208;11.162;2023-02-28T09:52:51;8.20;;;4.53;;
43809;SDS011;29440;48.208;11.162;2023-02-28T09:55:23;13.07;;;6.60;;
43809;SDS011;29440;48.208;11.162;2023-02-28T09:57:58;9.88;;;4.55;;
43809;SDS011;29440;48.208;11.162;2023-02-28T10:00:30;14.40;;;7.30;;
43809;SDS011;29440;48.208;11.162;2023-02-28T10:05:57;14.30;;;6.97;;
43809;SDS011;29440;48.208;11.162;2023-02-28T10:08:29;13.25;;;6.45;;
43809;SDS011;29440;48.208;11.162;2023-02-28T10:14:12;18.10;;;6.93;;
43809;SDS011;29440;48.208;11.162;2023-02-28T10:16:20;13.32;;;5.45;;
43809;SDS011;29440;48.208;11.162;2023-02-28T10:18:54;15.80;;;6.05;;
43809;SDS011;29440;48.208;11.162;2023-02-28T10:21:28;12.65;;;6.85;;
43809;SDS011;29440;48.208;11.162;2023-02-28T10:24:02;17.02;;;9.00;;
43809;SDS011;29440;48.208;11.162;2023-02-28T10:26:31;23.23;;;9.57;;
43809;SDS011;29440;48.208;11.162;2023-02-28T10:28:57;26.90;;;10.50;;
43809;SDS011;29440;48.208;11.162;2023-02-28T10:31:23;19.75;;;7.25;;
43809;SDS011;29440;48.208;11.162;2023-02-28T10:33:49;15.55;;;7.28;;
43809;SDS011;29440;48.208;11.162;2023-02-28T10:36:15;12.88;;;6.60;;
43809;SDS011;29440;48.208;11.162;2023-02-28T10:38:43;19.88;;;7.88;;
43809;SDS011;29440;48.208;11.162;2023-02-28T10:41:26;23.42;;;9.95;;
43809;SDS011;29440;48.208;11.162;2023-02-28T10:43:53;12.98;;;6.63;;
43809;SDS011;29440;48.208;11.162;2023-02-28T10:46:45;13.05;;;6.13;;
43809;SDS011;29440;48.208;11.162;2023-02-28T10:49:12;12.48;;;5.90;;
43809;SDS011;29440;48.208;11.162;2023-02-28T10:51:44;12.32;;;5.68;;
43809;SDS011;29440;48.208;11.162;2023-02-28T10:54:16;15.38;;;8.20;;
43809;SDS011;29440;48.208;11.162;2023-02-28T10:57:07;13.48;;;6.40;;
43809;SDS011;29440;48.208;11.162;2023-02-28T10:59:43;12.82;;;6.47;;
43809;SDS011;29440;48.208;11.162;2023-02-28T11:04:56;17.30;;;8.15;;
43809;SDS011;29440;48.208;11.162;2023-02-28T11:07:22;16.50;;;8.23;;
43809;SDS011;29440;48.208;11.162;2023-02-28T11:09:57;12.43;;;6.38;;
43809;SDS011;29440;48.208;11.162;2023-02-28T11:14:52;13.85;;;6.82;;
43809;SDS011;29440;48.208;11.162;2023-02-28T11:17:24;17.80;;;7.65;;
43809;SDS011;29440;48.208;11.162;2023-02-28T11:19:57;14.93;;;7.75;;
43809;SDS011;29440;48.208;11.162;2023-02-28T11:22:28;11.98;;;6.95;;
43809;SDS011;29440;48.208;11.162;2023-02-28T11:24:57;11.65;;;5.47;;
43809;SDS011;29440;48.208;11.162;2023-02-28T11:29:55;16.83;;;7.28;;
43809;SDS011;29440;48.208;11.162;2023-02-28T11:32:22;15.77;;;7.90;;
43809;SDS011;29440;48.208;11.162;2023-02-28T11:35:04;14.07;;;7.65;;
43809;SDS011;29440;48.208;11.162;2023-02-28T11:37:47;15.20;;;7.82;;
43809;SDS011;29440;48.208;11.162;2023-02-28T11:40:13;12.88;;;6.55;;
43809;SDS011;29440;48.208;11.162;2023-02-28T11:43:08;9.93;;;5.80;;
43809;SDS011;29440;48.208;11.162;2023-02-28T11:45:45;10.65;;;5.25;;
43809;SDS011;29440;48.208;11.162;2023-02-28T11:51:23;10.13;;;4.80;;
43809;SDS011;29440;48.208;11.162;2023-02-28T11:59:42;12.05;;;6.78;;
43809;SDS011;29440;48.208;11.162;2023-02-28T12:02:25;13.50;;;7.35;;
43809;SDS011;29440;48.208;11.162;2023-02-28T12:10:26;12.88;;;7.25;;
43809;SDS011;29440;48.208;11.162;2023-02-28T12:21:13;15.82;;;7.43;;
43809;SDS011;29440;48.208;11.162;2023-02-28T12:24:03;14.43;;;7.30;;
43809;SDS011;29440;48.208;11.162;2023-02-28T12:26:46;10.98;;;5.97;;
43809;SDS011;29440;48.208;11.162;2023-02-28T12:29:21;14.88;;;7.15;;
43809;SDS011;29440;48.208;11.162;2023-02-28T12:34:28;6.53;;;4.07;;
43809;SDS011;29440;48.208;11.162;2023-02-28T12:39:26;14.38;;;6.72;;
43809;SDS011;29440;48.208;11.162;2023-02-28T12:41:59;13.32;;;7.25;;
43809;SDS011;29440;48.208;11.162;2023-02-28T12:44:37;12.38;;;7.63;;
43809;SDS011;29440;48.208;11.162;2023-02-28T12:47:10;16.27;;;8.23;;
43809;SDS011;29440;48.208;11.162;2023-02-28T12:49:52;12.15;;;6.95;;
43809;SDS011;29440;48.208;11.162;2023-02-28T12:53:09;15.60;;;7.38;;
43809;SDS011;29440;48.208;11.162;2023-02-28T12:58:19;12.77;;;6.82;;
43809;SDS011;29440;48.208;11.162;2023-02-28T13:01:13;7.18;;;3.97;;
43809;SDS011;29440;48.208;11.162;2023-02-28T13:10:02;12.60;;;6.78;;
43809;SDS011;29440;48.208;11.162;2023-02-28T13:12:31;8.05;;;4.60;;
43809;SDS011;29440;48.208;11.162;2023-02-28T13:17:47;12.80;;;6.57;;
43809;SDS011;29440;48.208;11.162;2023-02-28T13:20:16;15.38;;;6.65;;
43809;SDS011;29440;48.208;11.162;2023-02-28T13:23:03;13.85;;;6.18;;
43809;SDS011;29440;48.208;11.162;2023-02-28T13:25:50;11.45;;;6.88;;
43809;SDS011;29440;48.208;11.162;2023-02-28T13:28:56;9.25;;;5.03;;
43809;SDS011;29440;48.208;11.162;2023-02-28T13:31:16;12.27;;;6.38;;
43809;SDS011;29440;48.208;11.162;2023-02-28T13:38:41;20.77;;;7.43;;
43809;SDS011;29440;48.208;11.162;2023-02-28T13:44:02;10.23;;;5.93;;
43809;SDS011;29440;48.208;11.162;2023-02-28T14:08:58;14.60;;;6.90;;
43809;SDS011;29440;48.208;11.162;2023-02-28T14:14:00;13.15;;;7.25;;
43809;SDS011;29440;48.208;11.162;2023-02-28T14:16:28;11.30;;;6.18;;
43809;SDS011;29440;48.208;11.162;2023-02-28T14:19:13;11.00;;;6.07;;
43809;SDS011;29440;48.208;11.162;2023-02-28T14:21:59;14.30;;;8.25;;
43809;SDS011;29440;48.208;11.162;2023-02-28T14:27:25;13.82;;;7.05;;
43809;SDS011;29440;48.208;11.162;2023-02-28T14:35:39;12.95;;;6.20;;
43809;SDS011;29440;48.208;11.162;2023-02-28T14:38:19;14.05;;;7.38;;
43809;SDS011;29440;48.208;11.162;2023-02-28T14:40:49;11.50;;;6.55;;
43809;SDS011;29440;48.208;11.162;2023-02-28T14:43:22;13.98;;;7.78;;
43809;SDS011;29440;48.208;11.162;2023-02-28T14:45:50;10.68;;;6.55;;
43809;SDS011;29440;48.208;11.162;2023-02-28T14:48:19;15.60;;;7.20;;
43809;SDS011;29440;48.208;11.162;2023-02-28T14:50:50;13.40;;;6.78;;
43809;SDS011;29440;48.208;11.162;2023-02-28T14:53:19;14.15;;;7.03;;
43809;SDS011;29440;48.208;11.162;2023-02-28T14:55:49;11.95;;;6.85;;
43809;SDS011;29440;48.208;11.162;2023-02-28T15:00:54;13.40;;;7.05;;
43809;SDS011;29440;48.208;11.162;2023-02-28T15:03:29;13.40;;;6.53;;
43809;SDS011;29440;48.208;11.162;2023-02-28T15:06:01;13.25;;;6.85;;
43809;SDS011;29440;48.208;11.162;2023-02-28T15:08:37;13.93;;;7.18;;
43809;SDS011;29440;48.208;11.162;2023-02-28T15:13:47;12.45;;;6.38;;
43809;SDS011;29440;48.208;11.162;2023-02-28T15:18:54;14.05;;;7.07;;
43809;SDS011;29440;48.208;11.162;2023-02-28T15:21:23;14.30;;;6.93;;
43809;SDS011;29440;48.208;11.162;2023-02-28T15:23:51;14.02;;;7.82;;
43809;SDS011;29440;48.208;11.162;2023-02-28T15:26:23;11.18;;;6.85;;
43809;SDS011;29440;48.208;11.162;2023-02-28T15:29:00;14.68;;;7.18;;
43809;SDS011;29440;48.208;11.162;2023-02-28T15:31:49;9.20;;;5.28;;
43809;SDS011;29440;48.208;11.162;2023-02-28T15:34:43;13.57;;;7.78;;
43809;SDS011;29440;48.208;11.162;2023-02-28T15:40:13;16.73;;;7.63;;
43809;SDS011;29440;48.208;11.162;2023-02-28T15:42:42;12.85;;;6.40;;
43809;SDS011;29440;48.208;11.162;2023-02-28T15:45:29;16.35;;;7.25;;
43809;SDS011;29440;48.208;11.162;2023-02-28T15:48:02;12.48;;;7.00;;
43809;SDS011;29440;48.208;11.162;2023-02-28T15:50:28;13.52;;;7.32;;
43809;SDS011;29440;48.208;11.162;2023-02-28T15:52:54;13.65;;;7.50;;
43809;SDS011;29440;48.208;11.162;2023-02-28T15:55:21;15.07;;;8.27;;
43809;SDS011;29440;48.208;11.162;2023-02-28T15:57:52;14.13;;;7.13;;
43809;SDS011;29440;48.208;11.162;2023-02-28T16:00:21;15.30;;;7.78;;
43809;SDS011;29440;48.208;11.162;2023-02-28T16:02:48;13.48;;;6.82;;
43809;SDS011;29440;48.208;11.162;2023-02-28T16:05:25;14.25;;;7.07;;
43809;SDS011;29440;48.208;11.162;2023-02-28T16:08:00;14.65;;;7.38;;
43809;SDS011;29440;48.208;11.162;2023-02-28T16:10:36;13.02;;;7.38;;
43809;SDS011;29440;48.208;11.162;2023-02-28T16:13:01;13.68;;;7.22;;
43809;SDS011;29440;48.208;11.162;2023-02-28T16:15:28;12.88;;;7.25;;
43809;SDS011;29440;48.208;11.162;2023-02-28T16:17:59;12.63;;;6.40;;
43809;SDS011;29440;48.208;11.162;2023-02-28T16:20:26;15.95;;;7.22;;
43809;SDS011;29440;48.208;11.162;2023-02-28T16:22:54;12.98;;;6.35;;
43809;SDS011;29440;48.208;11.162;2023-02-28T16:25:22;15.55;;;7.80;;
43809;SDS011;29440;48.208;11.162;2023-02-28T16:27:52;19.35;;;7.28;;
43809;SDS011;29440;48.208;11.162;2023-02-28T16:30:23;16.25;;;7.35;;
43809;SDS011;29440;48.208;11.162;2023-02-28T16:32:51;14.20;;;7.22;;
43809;SDS011;29440;48.208;11.162;2023-02-28T16:35:18;16.15;;;7.65;;
43809;SDS011;29440;48.208;11.162;2023-02-28T16:37:44;18.08;;;8.30;;
43809;SDS011;29440;48.208;11.162;2023-02-28T16:40:17;13.50;;;7.57;;
43809;SDS011;29440;48.208;11.162;2023-02-28T16:42:46;14.73;;;7.45;;
43809;SDS011;29440;48.208;11.162;2023-02-28T16:45:17;15.40;;;7.32;;
43809;SDS011;29440;48.208;11.162;2023-02-28T16:47:45;15.75;;;7.50;;
43809;SDS011;29440;48.208;11.162;2023-02-28T16:50:15;15.25;;;7.63;;
43809;SDS011;29440;48.208;11.162;2023-02-28T16:55:11;16.85;;;7.53;;